CYAZCYBL

Guest
Details From CYAZ - Tofino
To CYBL - Campbell River
Flight Number -
Tags generated
Created
Modified
Stats Distance 59 nm / 110 km
Max Altitude 1,100 ft / 335 m
Waypoints 3
Social Downloads 0
Likes 0
Share VATSIM

Download

Looking for another format? Having issues loading an existing format? Contact us
Advertisement - Login to hide

Notes

Basic altitude profile: - Ascent Rate: 1500ft/min - Ascent Speed: 150kts - Cruise Altitude: 21000ft - Cruise Speed: 230kts - Descent Rate: 1000ft/min - Descent Speed: 180kts Options: - Use NATs: yes - Use PACOTS: yes - Use low airways: yes - Use high airways: yes

Route

CYAZ COHOE CYBL

ID Type Via Altitude Latitude Longitude Leg Dist Tot Dist Heading (true) Name
O CYAZ APT - 0 ft / 0 m 49.07919˚ -125.77564˚ - 0 nm - Tofino
COHOE FIX - 1,100 ft / 335 m 49.94056˚ -125.41389˚ 53 nm 53 nm 15° / 15° -
O CYBL APT - 0 ft / 0 m 49.95067˚ -125.27080˚ 5 nm 59 nm 84° / 84° Campbell River

Altitude Profile

Advertisement - Login to hide

CYAZ

Details ICAO CYAZ (YAZ)
Name Tofino
Region Canada
Timezone America/Vancouver (UTC-8.0)
Stats Elevation 80 ft / 24 m (AMSL)
Location 49.079190° -125.775638°
Runways 3
Magnetic Variation 16.605° E

METAR

CYAZ 161500Z 00000KT 15SM OVC099 04/03 A3026 RMK AC8 SLP248

Decode

TAF

Not found

Departure Runways

ID Width Length Bearing (true) Bearing (mag) Surface Threshold Offset Overrun Length
07 151 ft / 46 m 5,079 ft / 1,548 m 91.22° 74.61° Concrete 719 ft / 219 m 0 ft / 0 m
10 115 ft / 35 m 4,994 ft / 1,522 m 125.73° 109.12° Concrete 499 ft / 152 m 0 ft / 0 m
15 115 ft / 35 m 4,869 ft / 1,484 m 175.81° 159.20° Concrete 200 ft / 61 m 0 ft / 0 m
25 151 ft / 46 m 5,079 ft / 1,548 m 271.23° 254.62° Concrete 351 ft / 107 m 0 ft / 0 m
28 115 ft / 35 m 4,994 ft / 1,522 m 305.74° 289.13° Concrete 0 ft / 0 m 0 ft / 0 m
33 115 ft / 35 m 4,869 ft / 1,484 m 355.81° 339.20° Concrete 869 ft / 265 m 0 ft / 0 m

CYBL

Details ICAO CYBL (YBL)
Name Campbell River
Region Canada
Timezone America/Vancouver (UTC-8.0)
Stats Elevation 346 ft / 105 m (AMSL)
Location 49.950671° -125.270803°
Runways 1
Magnetic Variation 16.765° E

METAR

CYBL 161500Z 00000KT 30SM OVC100 02/01 A3024 RMK AC8 SLP245

Decode

TAF

Not found

Destination Runways

ID Width Length Bearing (true) Bearing (mag) Surface Threshold Offset Overrun Length
11 151 ft / 46 m 5,023 ft / 1,531 m 135.20° 118.44° Asphalt 0 ft / 0 m 0 ft / 0 m
29 151 ft / 46 m 5,023 ft / 1,531 m 315.21° 298.45° Asphalt 0 ft / 0 m 0 ft / 0 m

Approach Navaids

Runway Type Ident Frequency Range Bearing (true) Bearing (mag) Slope Elevation
11 Localiser IBL 109.10 MHz 18 nm / 33 km 134.75° 117.99° - 309 ft / 94 m (AMSL)
11 Glidescope IBL 109.10 MHz 10 nm / 19 km 134.38° 117.62° 3.00° 344 ft / 105 m (AMSL)
29 Localiser IBL 109.10 MHz 18 nm / 33 km 134.38° 117.62° - 309 ft / 94 m (AMSL)
29 Glidescope IBL 109.10 MHz 10 nm / 19 km 315.21° 298.44° 3.00° 344 ft / 105 m (AMSL)

Popular Alternatives